createdAt,value
2023-03-16T00:01:08.883Z,98546.91
2023-03-16T00:03:36.520Z,98539.25
2023-03-16T00:06:03.877Z,98547.75
2023-03-16T00:08:30.844Z,98544.34
2023-03-16T00:10:57.388Z,98548.66
2023-03-16T00:13:24.804Z,98548.63
2023-03-16T00:15:55.197Z,98543.53
2023-03-16T00:18:27.291Z,98558.88
2023-03-16T00:20:55.878Z,98549.50
2023-03-16T00:23:27.510Z,98551.22
2023-03-16T00:25:59.000Z,98555.50
2023-03-16T00:28:27.554Z,98551.25
2023-03-16T00:30:59.191Z,98552.09
2023-03-16T00:33:26.807Z,98549.50
2023-03-16T00:36:02.257Z,98549.50
2023-03-16T00:38:34.916Z,98552.06
2023-03-16T00:41:06.040Z,98551.25
2023-03-16T00:43:40.973Z,98556.34
2023-03-16T00:46:09.407Z,98557.22
2023-03-16T00:48:38.135Z,98552.94
2023-03-16T00:51:07.649Z,98553.81
2023-03-16T00:53:35.284Z,98563.22
2023-03-16T00:56:05.738Z,98558.94
2023-03-16T00:58:37.899Z,98554.69
2023-03-16T01:01:11.088Z,98556.41
2023-03-16T01:03:37.729Z,98560.69
2023-03-16T01:06:06.474Z,98558.13
2023-03-16T01:08:33.294Z,98558.97
2023-03-16T01:11:08.041Z,98559.88
2023-03-16T01:13:34.822Z,98554.72
2023-03-16T01:16:01.339Z,98564.97
2023-03-16T01:18:28.755Z,98555.63
2023-03-16T01:20:55.359Z,98565.84
2023-03-16T01:23:21.920Z,98566.69
2023-03-16T01:25:53.136Z,98565.84
2023-03-16T01:28:21.731Z,98570.09
2023-03-16T01:30:48.347Z,98576.91
2023-03-16T01:33:15.190Z,98573.53
2023-03-16T01:35:41.692Z,98575.25
2023-03-16T01:38:08.176Z,98575.22
2023-03-16T01:40:34.763Z,98576.94
2023-03-16T01:43:04.506Z,98578.63
2023-03-16T01:45:59.070Z,98586.31
2023-03-16T01:48:27.288Z,98585.47
2023-03-16T01:50:54.903Z,98588.00
2023-03-16T01:53:23.024Z,98584.59
2023-03-16T01:55:50.510Z,98584.59
2023-03-16T01:58:17.770Z,98573.53
2023-03-16T02:00:45.766Z,98576.94
2023-03-16T02:03:16.732Z,98593.97
2023-03-16T02:05:49.001Z,98584.63
2023-03-16T02:08:17.774Z,98593.16
2023-03-16T02:10:45.343Z,98594.00
2023-03-16T02:13:12.672Z,98591.44
2023-03-16T02:15:39.551Z,98595.72
2023-03-16T02:18:07.915Z,98599.97
2023-03-16T02:21:25.487Z,98596.59
2023-03-16T02:23:52.569Z,98604.25
2023-03-16T02:26:34.983Z,98605.09
2023-03-16T02:29:27.918Z,98612.78
2023-03-16T02:31:55.419Z,98621.31
2023-03-16T02:34:21.951Z,98622.16
2023-03-16T02:36:52.319Z,98623.00
2023-03-16T02:39:18.971Z,98629.84
2023-03-16T02:41:46.728Z,98633.22
2023-03-16T02:44:24.360Z,98634.94
2023-03-16T02:46:54.854Z,98637.47
2023-03-16T02:49:34.274Z,98646.00
2023-03-16T02:52:00.826Z,98634.06
2023-03-16T02:54:27.369Z,98646.88
2023-03-16T02:56:54.149Z,98645.19
2023-03-16T02:59:20.727Z,98649.44
2023-03-16T03:01:47.316Z,98648.56
2023-03-16T03:04:13.852Z,98652.00
2023-03-16T03:06:41.766Z,98658.81
2023-03-16T03:09:09.811Z,98660.50
2023-03-16T03:11:36.348Z,98658.81
2023-03-16T03:14:03.973Z,98663.06
2023-03-16T03:16:31.567Z,98671.59
2023-03-16T03:18:59.012Z,98673.28
2023-03-16T03:21:25.844Z,98680.09
2023-03-16T03:23:52.546Z,98686.06
2023-03-16T03:26:19.981Z,98694.59
2023-03-16T03:28:46.921Z,98687.75
2023-03-16T03:31:20.970Z,98686.91
2023-03-16T03:33:47.756Z,98687.75
2023-03-16T03:36:17.098Z,98680.94
2023-03-16T03:38:44.351Z,98693.72
2023-03-16T03:41:10.931Z,98691.97
2023-03-16T03:43:40.046Z,98696.25
2023-03-16T03:46:06.759Z,98703.06
2023-03-16T03:48:33.878Z,98707.31
2023-03-16T03:51:00.979Z,98701.38
2023-03-16T03:53:27.522Z,98703.91
2023-03-16T03:55:54.022Z,98714.13
2023-03-16T03:58:20.542Z,98715.84
2023-03-16T04:00:47.172Z,98720.09
2023-03-16T04:03:14.270Z,98720.09
2023-03-16T04:05:43.043Z,98723.50
2023-03-16T04:08:09.675Z,98719.25
2023-03-16T04:10:36.252Z,98725.19
2023-03-16T04:13:02.796Z,98727.75
2023-03-16T04:15:30.548Z,98724.34
2023-03-16T04:17:57.054Z,98720.91
2023-03-16T04:20:23.933Z,98725.19
2023-03-16T04:22:58.298Z,98732.84
2023-03-16T04:25:26.805Z,98738.78
2023-03-16T04:27:54.092Z,98740.47
2023-03-16T04:30:20.811Z,98738.78
2023-03-16T04:32:47.465Z,98737.97
2023-03-16T04:35:15.647Z,98734.53
2023-03-16T04:37:42.248Z,98735.38
2023-03-16T04:40:19.462Z,98740.47
2023-03-16T04:42:47.443Z,98745.56
2023-03-16T04:45:15.783Z,98749.81
2023-03-16T04:47:42.368Z,98745.56
2023-03-16T04:50:10.517Z,98745.56
2023-03-16T04:52:37.021Z,98747.25
2023-03-16T04:55:04.336Z,98748.13
2023-03-16T04:57:30.934Z,98753.22
2023-03-16T04:59:57.497Z,98751.47
2023-03-16T05:02:24.521Z,98757.47
2023-03-16T05:04:51.135Z,98760.88
2023-03-16T05:07:17.730Z,98752.38
2023-03-16T05:09:44.448Z,98760.09
2023-03-16T05:12:11.158Z,98768.56
2023-03-16T05:14:37.813Z,98770.25
2023-03-16T05:17:04.624Z,98774.53
2023-03-16T05:19:31.158Z,98776.19
2023-03-16T05:21:57.836Z,98783.81
2023-03-16T05:24:24.436Z,98784.63
2023-03-16T05:26:51.065Z,98788.88
2023-03-16T05:29:17.653Z,98788.88
2023-03-16T05:31:46.861Z,98791.38
2023-03-16T05:34:13.552Z,98804.16
2023-03-16T05:36:40.064Z,98807.56
2023-03-16T05:39:08.638Z,98811.00
2023-03-16T05:41:35.786Z,98818.69
2023-03-16T05:44:04.432Z,98817.00
2023-03-16T05:46:31.261Z,98822.97
2023-03-16T05:48:57.885Z,98824.69
2023-03-16T05:51:26.469Z,98822.97
2023-03-16T05:53:56.704Z,98828.09
2023-03-16T05:56:27.728Z,98828.09
2023-03-16T05:58:55.255Z,98831.53
2023-03-16T06:01:22.820Z,98834.91
2023-03-16T06:03:52.143Z,98831.53
2023-03-16T06:06:22.740Z,98840.03
2023-03-16T06:08:49.660Z,98846.03
2023-03-16T06:11:16.501Z,98844.34
2023-03-16T06:13:43.235Z,98863.13
2023-03-16T06:16:11.690Z,98847.94
2023-03-16T06:18:40.962Z,98855.66
2023-03-16T06:21:07.574Z,98859.16
2023-03-16T06:23:34.142Z,98854.94
2023-03-16T06:26:01.185Z,98859.25
2023-03-16T06:28:28.650Z,98868.66
2023-03-16T06:30:56.624Z,98868.69
2023-03-16T06:33:24.150Z,98867.00
2023-03-16T06:35:51.568Z,98873.84
2023-03-16T06:38:19.265Z,98869.56
2023-03-16T06:40:45.854Z,98870.44
2023-03-16T06:43:12.449Z,98882.34
2023-03-16T06:45:39.008Z,98889.16
2023-03-16T06:48:07.041Z,98893.41
2023-03-16T06:50:33.535Z,98891.69
2023-03-16T06:53:00.105Z,98894.22
2023-03-16T06:55:26.589Z,98899.38
2023-03-16T06:57:53.190Z,98908.75
2023-03-16T07:00:20.117Z,98906.16
2023-03-16T07:02:46.715Z,98913.00
2023-03-16T07:05:13.463Z,98910.38
2023-03-16T07:07:43.948Z,98922.28
2023-03-16T07:10:15.743Z,98922.28
2023-03-16T07:12:42.464Z,98917.16
2023-03-16T07:15:10.251Z,98918.84
2023-03-16T07:17:37.005Z,98926.56
2023-03-16T07:20:10.560Z,98929.94
2023-03-16T07:22:38.018Z,98926.47
2023-03-16T07:25:06.171Z,98929.03
2023-03-16T07:27:33.388Z,98929.03
2023-03-16T07:30:05.182Z,98927.25
2023-03-16T07:32:32.685Z,98937.44
2023-03-16T07:34:59.868Z,98935.78
2023-03-16T07:37:26.828Z,98933.22
2023-03-16T07:39:53.431Z,98935.75
2023-03-16T07:42:20.088Z,98936.53
2023-03-16T07:44:46.625Z,98938.16
2023-03-16T07:47:14.613Z,98937.25
2023-03-16T07:49:41.813Z,98939.06
2023-03-16T07:52:08.585Z,98939.94
2023-03-16T07:54:35.246Z,98945.97
2023-03-16T07:57:01.809Z,98940.72
2023-03-16T07:59:28.367Z,98947.50
2023-03-16T08:01:54.932Z,98948.28
2023-03-16T08:04:22.405Z,98951.69
2023-03-16T08:06:49.178Z,98940.44
2023-03-16T08:09:15.762Z,98942.09
2023-03-16T08:11:42.838Z,98936.94
2023-03-16T08:14:09.399Z,98939.34
2023-03-16T08:16:39.017Z,98940.91
2023-03-16T08:19:05.588Z,98943.38
2023-03-16T08:21:33.100Z,98940.75
2023-03-16T08:23:59.732Z,98948.44
2023-03-16T08:26:27.257Z,98947.72
2023-03-16T08:28:54.438Z,98951.03
2023-03-16T08:31:21.700Z,98951.03
2023-03-16T08:33:48.968Z,98952.75
2023-03-16T08:36:18.003Z,98953.56
2023-03-16T08:38:59.906Z,98950.97
2023-03-16T08:41:33.045Z,98949.19
2023-03-16T08:44:00.014Z,98950.84
2023-03-16T08:46:26.950Z,98957.81
2023-03-16T08:48:55.865Z,98945.72
2023-03-16T08:51:22.401Z,98943.16
2023-03-16T08:53:48.901Z,98946.50
2023-03-16T08:56:15.580Z,98946.34
2023-03-16T08:58:45.504Z,98946.38
2023-03-16T09:01:17.596Z,98947.19
2023-03-16T09:03:46.319Z,98950.59
2023-03-16T09:06:15.708Z,98962.59
2023-03-16T09:08:44.383Z,98961.94
2023-03-16T09:11:14.301Z,98952.53
2023-03-16T09:13:41.763Z,98975.81
2023-03-16T09:16:09.979Z,98970.84
2023-03-16T09:18:36.840Z,98967.28
2023-03-16T09:21:06.183Z,98971.59
2023-03-16T09:23:34.434Z,98958.72
2023-03-16T09:26:02.996Z,98976.84
2023-03-16T09:28:31.376Z,98962.41
2023-03-16T09:30:58.996Z,98960.66
2023-03-16T09:33:26.229Z,98967.47
2023-03-16T09:35:53.265Z,98969.28
2023-03-16T09:38:19.949Z,98963.31
2023-03-16T09:40:55.890Z,98969.22
2023-03-16T09:43:40.879Z,98970.88
2023-03-16T09:46:22.794Z,98969.06
2023-03-16T09:48:49.330Z,98973.25
2023-03-16T09:51:50.688Z,98971.50
2023-03-16T09:54:45.996Z,98974.94
2023-03-16T09:57:29.095Z,98976.63
2023-03-16T10:00:02.949Z,98978.41
2023-03-16T10:02:47.899Z,98969.78
2023-03-16T10:05:17.235Z,98977.47
2023-03-16T10:08:25.777Z,98967.19
2023-03-16T10:11:18.026Z,98961.97
2023-03-16T10:14:17.820Z,98968.00
2023-03-16T10:17:03.791Z,98963.69
2023-03-16T10:19:51.357Z,98977.41
2023-03-16T10:22:26.559Z,98968.94
2023-03-16T10:25:05.434Z,98967.16
2023-03-16T10:27:36.668Z,98973.06
2023-03-16T10:30:08.173Z,98967.00
2023-03-16T10:32:36.632Z,98976.38
2023-03-16T10:35:18.634Z,98982.47
2023-03-16T10:37:46.732Z,98979.03
2023-03-16T10:40:13.445Z,98972.09
2023-03-16T10:42:40.057Z,98975.50
2023-03-16T10:45:06.953Z,98973.81
2023-03-16T10:47:33.952Z,98970.34
2023-03-16T10:50:14.450Z,98978.22
2023-03-16T10:52:45.341Z,98973.91
2023-03-16T10:55:20.344Z,98967.00
2023-03-16T10:57:55.213Z,98958.34
2023-03-16T11:00:29.892Z,98969.44
2023-03-16T11:02:59.722Z,98969.56
2023-03-16T11:05:32.370Z,98967.78
2023-03-16T11:08:04.804Z,98967.78
2023-03-16T11:10:36.165Z,98960.88
2023-03-16T11:13:21.041Z,98959.94
2023-03-16T11:16:01.712Z,98960.81
2023-03-16T11:18:32.403Z,98961.81
2023-03-16T11:21:08.247Z,98963.31
2023-03-16T11:23:39.402Z,98948.72
2023-03-16T11:26:15.397Z,98947.09
2023-03-16T11:28:49.615Z,98953.09
2023-03-16T11:31:27.705Z,98941.88
2023-03-16T11:33:57.448Z,98945.25
2023-03-16T11:36:49.746Z,98940.91
2023-03-16T11:39:42.716Z,98942.56
2023-03-16T11:42:39.538Z,98950.28
2023-03-16T11:45:37.222Z,98947.78
2023-03-16T11:48:16.066Z,98942.63
2023-03-16T11:51:12.862Z,98932.19
2023-03-16T11:54:00.261Z,98930.34
2023-03-16T11:56:48.150Z,98947.47
2023-03-16T11:59:20.570Z,98936.28
2023-03-16T12:02:16.402Z,98944.84
2023-03-16T12:05:07.741Z,98942.28
2023-03-16T12:07:52.131Z,98937.88
2023-03-16T12:10:26.559Z,98940.31
2023-03-16T12:13:20.164Z,98938.44
2023-03-16T12:15:54.964Z,98935.88
2023-03-16T12:18:36.489Z,98941.94
2023-03-16T12:21:09.455Z,98944.56
2023-03-16T12:23:41.544Z,98946.22
2023-03-16T12:26:09.205Z,98932.69
2023-03-16T12:28:37.390Z,98940.28
2023-03-16T12:31:26.336Z,98931.69
2023-03-16T12:34:07.923Z,98934.13
2023-03-16T12:36:56.035Z,98935.00
2023-03-16T12:39:58.471Z,98947.81
2023-03-16T12:42:56.399Z,98935.00
2023-03-16T12:45:36.309Z,98930.63
2023-03-16T12:48:14.752Z,98935.06
2023-03-16T12:50:59.681Z,98934.06
2023-03-16T12:53:49.701Z,98933.97
2023-03-16T12:56:19.050Z,98946.06
2023-03-16T12:58:50.318Z,98933.06
2023-03-16T13:01:28.530Z,98938.31
2023-03-16T13:04:09.131Z,98935.69
2023-03-16T13:06:37.346Z,98934.75
2023-03-16T13:09:07.311Z,98935.56
2023-03-16T13:11:43.805Z,98932.13
2023-03-16T13:14:17.112Z,98920.03
2023-03-16T13:16:45.610Z,98932.06
2023-03-16T13:19:29.642Z,98940.66
2023-03-16T13:22:19.854Z,98944.03
2023-03-16T13:24:54.596Z,98936.28
2023-03-16T13:27:36.186Z,98943.16
2023-03-16T13:30:18.789Z,98937.13
2023-03-16T13:32:47.161Z,98937.13
2023-03-16T13:35:15.555Z,98926.66
2023-03-16T13:37:43.880Z,98930.16
2023-03-16T13:40:27.919Z,98932.16
2023-03-16T13:42:57.251Z,98931.34
2023-03-16T13:45:38.000Z,98926.09
2023-03-16T13:48:05.601Z,98937.19
2023-03-16T13:50:33.934Z,98937.13
2023-03-16T13:53:04.495Z,98943.09
2023-03-16T13:55:38.627Z,98934.47
2023-03-16T13:58:05.872Z,98930.94
2023-03-16T14:00:37.265Z,98929.19
2023-03-16T14:03:14.682Z,98934.31
2023-03-16T14:05:41.375Z,98931.00
2023-03-16T14:08:19.701Z,98934.47
2023-03-16T14:10:47.035Z,98931.00
2023-03-16T14:13:29.238Z,98920.78
2023-03-16T14:15:59.793Z,98918.28
2023-03-16T14:18:30.464Z,98918.91
2023-03-16T14:20:57.110Z,98915.63
2023-03-16T14:23:31.652Z,98922.38
2023-03-16T14:25:58.340Z,98917.13
2023-03-16T14:28:32.456Z,98921.31
2023-03-16T14:31:11.008Z,98921.34
2023-03-16T14:33:41.999Z,98919.56
2023-03-16T14:36:17.668Z,98914.41
2023-03-16T14:38:48.359Z,98919.63
2023-03-16T14:41:26.564Z,98912.75
2023-03-16T14:43:58.461Z,98924.72
2023-03-16T14:46:29.746Z,98923.97
2023-03-16T14:49:28.834Z,98928.22
2023-03-16T14:52:00.710Z,98930.81
2023-03-16T14:54:28.450Z,98921.31
2023-03-16T14:57:01.532Z,98912.59
2023-03-16T14:59:28.701Z,98922.97
2023-03-16T15:01:56.145Z,98930.59
2023-03-16T15:04:31.391Z,98926.28
2023-03-16T15:06:58.712Z,98928.09
2023-03-16T15:09:29.112Z,98933.34
2023-03-16T15:11:57.902Z,98928.13
2023-03-16T15:14:42.686Z,98930.66
2023-03-16T15:17:09.510Z,98934.91
2023-03-16T15:19:36.567Z,98941.91
2023-03-16T15:22:04.586Z,98943.63
2023-03-16T15:24:32.910Z,98943.66
2023-03-16T15:27:00.145Z,98940.19
2023-03-16T15:29:27.176Z,98941.00
2023-03-16T15:31:54.657Z,98943.53
2023-03-16T15:34:22.506Z,98942.75
2023-03-16T15:36:49.355Z,98944.47
2023-03-16T15:39:24.656Z,98954.00
2023-03-16T15:41:51.846Z,98949.78
2023-03-16T15:44:18.807Z,98948.06
2023-03-16T15:46:45.496Z,98952.22
2023-03-16T15:49:12.286Z,98966.06
2023-03-16T15:51:38.886Z,98954.00
2023-03-16T15:54:09.568Z,98960.72
2023-03-16T15:56:53.413Z,98956.13
2023-03-16T15:59:24.683Z,98965.63
2023-03-16T16:01:52.758Z,98954.44
2023-03-16T16:04:21.769Z,98959.63
2023-03-16T16:06:49.976Z,98965.69
2023-03-16T16:09:17.942Z,98964.28
2023-03-16T16:11:47.250Z,98970.44
2023-03-16T16:14:17.368Z,98969.75
2023-03-16T16:16:45.984Z,98966.22
2023-03-16T16:19:16.776Z,98967.91
2023-03-16T16:21:47.595Z,98968.97
2023-03-16T16:24:14.114Z,98969.13
2023-03-16T16:26:53.778Z,98964.88
2023-03-16T16:29:22.705Z,98970.16
2023-03-16T16:31:50.456Z,98964.16
2023-03-16T16:34:21.142Z,98961.81
2023-03-16T16:36:49.045Z,98966.22
2023-03-16T16:39:15.649Z,98959.31
2023-03-16T16:41:43.087Z,98967.19
2023-03-16T16:44:19.875Z,98971.63
2023-03-16T16:46:49.353Z,98973.38
2023-03-16T16:49:16.255Z,98967.38
2023-03-16T16:51:45.839Z,98973.38
2023-03-16T16:54:21.960Z,98980.31
2023-03-16T16:56:51.334Z,98979.66
2023-03-16T16:59:37.239Z,98982.28
2023-03-16T17:02:21.458Z,98987.56
2023-03-16T17:04:52.144Z,98991.09
2023-03-16T17:07:18.822Z,98988.59
2023-03-16T17:09:51.031Z,98993.81
2023-03-16T17:12:21.885Z,98994.69
2023-03-16T17:14:49.236Z,98993.06
2023-03-16T17:17:17.866Z,99000.91
2023-03-16T17:19:46.853Z,99001.84
2023-03-16T17:22:28.930Z,99002.66
2023-03-16T17:24:55.637Z,99010.41
2023-03-16T17:27:27.889Z,99008.69
2023-03-16T17:29:55.422Z,99009.63
2023-03-16T17:32:22.945Z,99007.13
2023-03-16T17:34:51.003Z,99008.84
2023-03-16T17:37:20.159Z,99008.88
2023-03-16T17:39:47.023Z,99007.19
2023-03-16T17:42:18.014Z,99015.81
2023-03-16T17:44:47.448Z,99021.81
2023-03-16T17:47:21.471Z,99015.84
2023-03-16T17:49:48.741Z,99022.72
2023-03-16T17:52:20.607Z,99033.91
2023-03-16T17:54:52.229Z,99029.63
2023-03-16T17:57:24.266Z,99030.56
2023-03-16T17:59:51.357Z,99035.72
2023-03-16T18:02:45.553Z,99035.81
2023-03-16T18:05:25.369Z,99034.09
2023-03-16T18:07:53.803Z,99040.13
2023-03-16T18:10:24.637Z,99055.53
2023-03-16T18:13:06.772Z,99054.72
2023-03-16T18:15:36.548Z,99043.66
2023-03-16T18:18:07.527Z,99042.81
2023-03-16T18:20:36.721Z,99050.50
2023-03-16T18:23:15.532Z,99043.69
2023-03-16T18:25:43.067Z,99041.94
2023-03-16T18:28:11.310Z,99039.41
2023-03-16T18:30:39.730Z,99041.13
2023-03-16T18:33:12.724Z,99044.59
2023-03-16T18:35:39.380Z,99048.06
2023-03-16T18:38:17.463Z,99046.31
2023-03-16T18:40:43.984Z,99048.91
2023-03-16T18:43:18.488Z,99051.44
2023-03-16T18:45:46.048Z,99053.19
2023-03-16T18:48:34.941Z,99050.63
2023-03-16T18:51:02.080Z,99055.75
2023-03-16T18:53:29.653Z,99056.63
2023-03-16T18:55:57.557Z,99063.47
2023-03-16T18:58:24.912Z,99061.75
2023-03-16T19:00:56.934Z,99064.31
2023-03-16T19:03:30.187Z,99070.31
2023-03-16T19:05:58.686Z,99080.56
2023-03-16T19:08:27.390Z,99076.31
2023-03-16T19:11:01.286Z,99082.31
2023-03-16T19:13:28.441Z,99087.44
2023-03-16T19:15:57.710Z,99084.03
2023-03-16T19:18:26.339Z,99093.44
2023-03-16T19:20:55.445Z,99089.16
2023-03-16T19:23:36.040Z,99087.47
2023-03-16T19:26:06.221Z,99090.91
2023-03-16T19:28:37.277Z,99084.91
2023-03-16T19:31:16.916Z,99074.63
2023-03-16T19:33:43.597Z,99072.09
2023-03-16T19:36:23.405Z,99067.81
2023-03-16T19:38:51.154Z,99074.63
2023-03-16T19:41:28.741Z,99071.22
2023-03-16T19:43:58.155Z,99084.03
2023-03-16T19:46:28.556Z,99085.78
2023-03-16T19:48:56.638Z,99101.16
2023-03-16T19:51:25.823Z,99096.00
2023-03-16T19:53:52.514Z,99098.53
2023-03-16T19:56:21.829Z,99101.09
2023-03-16T19:58:53.745Z,99103.66
2023-03-16T20:01:23.523Z,99107.94
2023-03-16T20:03:51.710Z,99107.09
2023-03-16T20:06:20.680Z,99100.22
2023-03-16T20:08:48.282Z,99114.75
2023-03-16T20:11:35.790Z,99113.00
2023-03-16T20:14:03.743Z,99111.31
2023-03-16T20:16:35.507Z,99113.84
2023-03-16T20:19:13.512Z,99124.91
2023-03-16T20:21:40.106Z,99112.94
2023-03-16T20:24:16.301Z,99103.56
2023-03-16T20:26:44.189Z,99112.94
2023-03-16T20:29:37.586Z,99113.75
2023-03-16T20:32:12.592Z,99116.25
2023-03-16T20:34:39.038Z,99117.13
2023-03-16T20:37:23.753Z,99119.72
2023-03-16T20:39:52.309Z,99111.13
2023-03-16T20:42:24.604Z,99118.78
2023-03-16T20:44:51.712Z,99114.50
2023-03-16T20:47:23.227Z,99118.72
2023-03-16T20:49:51.622Z,99114.50
2023-03-16T20:52:24.430Z,99108.56
2023-03-16T20:54:51.184Z,99099.19
2023-03-16T20:57:23.643Z,99094.06
2023-03-16T20:59:53.876Z,99097.50
2023-03-16T21:02:29.685Z,99089.78
2023-03-16T21:05:01.878Z,99098.31
2023-03-16T21:07:28.588Z,99100.91
2023-03-16T21:09:55.240Z,99100.88
2023-03-16T21:12:31.485Z,99106.88
2023-03-16T21:14:59.008Z,99099.22
2023-03-16T21:17:31.319Z,99100.88
2023-03-16T21:19:59.144Z,99101.75
2023-03-16T21:22:31.744Z,99100.00
2023-03-16T21:24:58.964Z,99101.66
2023-03-16T21:27:29.087Z,99095.66
2023-03-16T21:29:57.162Z,99091.34
2023-03-16T21:32:28.057Z,99092.22
2023-03-16T21:34:56.215Z,99093.94
2023-03-16T21:37:28.949Z,99090.53
2023-03-16T21:39:55.754Z,99089.69
2023-03-16T21:42:22.338Z,99084.56
2023-03-16T21:44:48.831Z,99091.31
2023-03-16T21:47:29.315Z,99095.56
2023-03-16T21:49:56.350Z,99096.34
2023-03-16T21:52:25.312Z,99103.94
2023-03-16T21:54:52.818Z,99109.94
2023-03-16T21:57:19.886Z,99113.34
2023-03-16T21:59:46.610Z,99109.06
2023-03-16T22:02:34.735Z,99114.25
2023-03-16T22:05:01.344Z,99109.09
2023-03-16T22:07:28.013Z,99112.50
2023-03-16T22:09:54.563Z,99096.25
2023-03-16T22:12:21.115Z,99101.38
2023-03-16T22:14:48.411Z,99105.66
2023-03-16T22:17:22.308Z,99103.13
2023-03-16T22:19:48.931Z,99101.34
2023-03-16T22:22:16.868Z,99106.47
2023-03-16T22:24:43.843Z,99104.75
2023-03-16T22:27:19.260Z,99106.41
2023-03-16T22:29:45.904Z,99107.13
2023-03-16T22:32:18.203Z,99102.75
2023-03-16T22:34:52.719Z,99105.25
2023-03-16T22:37:23.049Z,99096.75
2023-03-16T22:39:50.452Z,99095.00
2023-03-16T22:42:24.762Z,99090.72
2023-03-16T22:44:51.301Z,99098.31
2023-03-16T22:47:29.370Z,99101.66
2023-03-16T22:49:56.057Z,99098.19
2023-03-16T22:52:28.279Z,99107.53
2023-03-16T22:54:57.283Z,99101.59
2023-03-16T22:57:23.878Z,99104.97
2023-03-16T22:59:52.212Z,99104.06
2023-03-16T23:02:24.387Z,99093.84
2023-03-16T23:04:51.025Z,99089.72
2023-03-16T23:07:18.288Z,99094.72
2023-03-16T23:09:44.832Z,99103.28
2023-03-16T23:12:17.366Z,99110.91
2023-03-16T23:14:44.323Z,99100.56
2023-03-16T23:17:19.635Z,99106.56
2023-03-16T23:19:46.716Z,99115.03
2023-03-16T23:22:13.442Z,99111.56
2023-03-16T23:24:41.032Z,99107.28
2023-03-16T23:27:17.504Z,99105.50
2023-03-16T23:29:47.262Z,99099.59
2023-03-16T23:32:17.016Z,99110.56
2023-03-16T23:34:43.646Z,99107.88
2023-03-16T23:37:10.226Z,99104.41
2023-03-16T23:39:38.161Z,99107.78
2023-03-16T23:42:06.550Z,99112.03
2023-03-16T23:44:34.532Z,99115.41
2023-03-16T23:47:02.931Z,99110.25
2023-03-16T23:49:32.882Z,99112.75
2023-03-16T23:52:00.748Z,99105.94
2023-03-16T23:54:30.582Z,99110.19
2023-03-16T23:56:57.387Z,99115.97
2023-03-16T23:59:27.698Z,99109.22
